Time;durP1;ratioP1;P1;durP2;ratioP2;P2;SDS_P1;SDS_P2;PMS_P1;PMS_P2;Temp;Humidity;BMP_temperature;BMP_pressure;BME280_temperature;BME280_humidity;BME280_pressure;Samples;Min_cycle;Max_cycle;Signal;HPM_P1;HPM_P2
2024/02/07 00:00:56;;;;;;;6.28;3.60;;;11.60;99.90;;;;;;6212168;23;20004;-68
2024/02/07 00:03:43;;;;;;;6.25;3.25;;;11.60;99.90;;;;;;6211435;23;20020;-68
2024/02/07 00:06:30;;;;;;;8.43;2.75;;;11.60;99.90;;;;;;6213012;23;20000;-68
2024/02/07 00:09:16;;;;;;;5.43;3.10;;;11.60;99.90;;;;;;6211951;23;20009;-68
2024/02/07 00:12:03;;;;;;;6.57;4.05;;;11.60;99.90;;;;;;6211165;23;20005;-68
2024/02/07 00:14:49;;;;;;;9.45;3.30;;;11.60;99.90;;;;;;6210445;23;20016;-68
2024/02/07 00:17:35;;;;;;;3.30;2.75;;;11.50;99.90;;;;;;6188724;23;20005;-67
2024/02/07 00:20:21;;;;;;;5.38;2.78;;;11.50;99.90;;;;;;6212090;23;20009;-68
2024/02/07 00:23:07;;;;;;;5.38;3.10;;;11.50;99.90;;;;;;6213306;23;20015;-68
2024/02/07 00:25:53;;;;;;;5.60;2.88;;;11.50;99.90;;;;;;6211759;23;20441;-68
2024/02/07 00:28:39;;;;;;;5.85;3.28;;;11.40;99.90;;;;;;6188993;23;20028;-68
2024/02/07 00:31:26;;;;;;;7.05;3.78;;;11.40;99.90;;;;;;6212132;23;20059;-68
2024/02/07 00:34:11;;;;;;;4.28;2.75;;;11.40;99.90;;;;;;6210690;23;20000;-68
2024/02/07 00:36:57;;;;;;;4.55;2.60;;;11.40;99.90;;;;;;6212476;23;20377;-68
2024/02/07 00:39:44;;;;;;;4.55;2.72;;;11.40;99.90;;;;;;6212461;23;20012;-68
2024/02/07 00:42:30;;;;;;;4.22;2.80;;;11.40;99.90;;;;;;6209976;23;20036;-68
2024/02/07 00:45:16;;;;;;;4.32;2.90;;;11.40;99.90;;;;;;6213227;23;20107;-68
2024/02/07 00:48:02;;;;;;;3.88;2.53;;;11.40;99.90;;;;;;6211884;23;20007;-68
2024/02/07 00:50:48;;;;;;;7.43;3.47;;;11.30;99.90;;;;;;6210508;23;20103;-68
2024/02/07 00:53:34;;;;;;;5.65;3.55;;;11.30;99.90;;;;;;6212916;23;20307;-68
2024/02/07 00:56:20;;;;;;;6.57;3.30;;;11.30;99.90;;;;;;6190168;23;20021;-68
2024/02/07 00:59:06;;;;;;;5.45;3.28;;;11.30;99.90;;;;;;6208793;23;20043;-68
2024/02/07 01:01:53;;;;;;;9.90;4.72;;;11.30;99.90;;;;;;6211860;23;20008;-68
2024/02/07 01:04:38;;;;;;;5.97;2.95;;;11.30;99.90;;;;;;6188986;23;20503;-69
2024/02/07 01:07:24;;;;;;;7.85;3.15;;;11.30;99.90;;;;;;6212533;23;20008;-68
2024/02/07 01:10:10;;;;;;;5.40;2.80;;;11.30;99.90;;;;;;6212841;23;20009;-68
2024/02/07 01:12:56;;;;;;;4.50;2.72;;;11.30;99.90;;;;;;6212848;23;20223;-68
2024/02/07 01:15:43;;;;;;;5.55;2.67;;;11.30;99.90;;;;;;6209471;23;20013;-68
2024/02/07 01:18:29;;;;;;;4.05;2.60;;;11.30;99.90;;;;;;6209649;23;20055;-67
2024/02/07 01:21:15;;;;;;;7.43;2.92;;;11.30;99.90;;;;;;6212654;23;20028;-68
2024/02/07 01:24:01;;;;;;;5.10;3.00;;;11.30;99.90;;;;;;6211500;23;20503;-69
2024/02/07 01:26:47;;;;;;;3.40;2.03;;;11.20;99.90;;;;;;6188604;23;20345;-69
2024/02/07 01:29:36;;;;;;;3.88;1.70;;;11.20;99.90;;;;;;6209565;23;20000;-69
2024/02/07 01:32:22;;;;;;;2.45;1.20;;;11.00;99.90;;;;;;6210443;23;20084;-68
2024/02/07 01:35:12;;;;;;;1.08;0.85;;;10.90;99.90;;;;;;6209729;23;20024;-68
2024/02/07 01:38:07;;;;;;;2.60;1.45;;;10.70;99.90;;;;;;6209564;23;20015;-69
2024/02/07 01:40:57;;;;;;;1.40;0.80;;;10.60;99.90;;;;;;6209223;23;20008;-68
2024/02/07 01:43:43;;;;;;;0.55;0.50;;;10.50;99.90;;;;;;6209711;23;20464;-69
2024/02/07 01:46:29;;;;;;;0.98;0.80;;;10.40;99.90;;;;;;6190399;23;20012;-68
2024/02/07 01:49:15;;;;;;;0.52;0.43;;;10.40;99.90;;;;;;6213272;23;20438;-69
2024/02/07 01:52:01;;;;;;;0.77;0.57;;;10.20;99.90;;;;;;6211885;23;20087;-68
2024/02/07 01:54:48;;;;;;;2.13;0.73;;;10.10;99.90;;;;;;6208918;23;20009;-68
2024/02/07 01:57:34;;;;;;;1.42;0.77;;;9.90;99.90;;;;;;6210939;23;20004;-70
2024/02/07 02:00:21;;;;;;;0.90;0.57;;;9.70;99.90;;;;;;6210710;23;20007;-69
2024/02/07 02:03:07;;;;;;;2.00;0.60;;;9.60;99.90;;;;;;6208724;23;20516;-69
2024/02/07 02:05:55;;;;;;;1.00;0.73;;;9.50;99.90;;;;;;6208350;23;20008;-68
2024/02/07 02:08:41;;;;;;;1.65;1.00;;;9.40;99.90;;;;;;6209624;23;20004;-68
2024/02/07 02:11:33;;;;;;;1.83;0.90;;;9.30;99.90;;;;;;6211589;23;20008;-68
2024/02/07 02:14:19;;;;;;;0.50;0.45;;;9.30;99.90;;;;;;6212333;23;20001;-69
2024/02/07 02:17:07;;;;;;;0.52;0.50;;;9.10;99.90;;;;;;6189253;23;20016;-68
2024/02/07 02:19:53;;;;;;;1.70;0.80;;;9.00;99.90;;;;;;6209572;23;20004;-68
2024/02/07 02:22:54;;;;;;;1.92;0.98;;;8.80;99.90;;;;;;6212294;23;20092;-68
2024/02/07 02:26:16;;;;;;;1.40;0.60;;;8.80;99.90;;;;;;6212561;23;20092;-68
2024/02/07 02:29:38;;;;;;;2.70;0.85;;;8.70;99.90;;;;;;6210418;23;20083;-68
2024/02/07 02:32:25;;;;;;;3.22;0.90;;;8.70;99.90;;;;;;6209955;23;20055;-68
2024/02/07 02:35:13;;;;;;;1.20;0.60;;;8.60;99.90;;;;;;6210598;23;20019;-68
2024/02/07 02:37:58;;;;;;;1.33;0.73;;;8.60;99.90;;;;;;6210886;23;20005;-68
2024/02/07 02:40:44;;;;;;;1.17;0.95;;;8.60;99.90;;;;;;6212297;23;20035;-68
2024/02/07 02:43:30;;;;;;;1.40;0.75;;;8.60;99.90;;;;;;6212367;23;20437;-68
2024/02/07 02:46:16;;;;;;;1.67;0.88;;;8.60;99.90;;;;;;6212165;23;20001;-67
2024/02/07 02:49:02;;;;;;;2.05;0.80;;;8.60;99.90;;;;;;6211906;23;20016;-67
2024/02/07 02:51:48;;;;;;;0.77;0.70;;;8.50;99.90;;;;;;6209541;23;20009;-67
2024/02/07 02:54:36;;;;;;;1.67;0.90;;;8.50;99.90;;;;;;6212485;23;20084;-67
2024/02/07 02:57:23;;;;;;;0.60;0.55;;;8.40;99.90;;;;;;6211453;23;20013;-68
2024/02/07 03:00:10;;;;;;;1.58;0.77;;;8.40;99.90;;;;;;6211669;23;20396;-67
2024/02/07 03:02:56;;;;;;;0.75;0.50;;;8.40;99.90;;;;;;6212114;23;20024;-67
2024/02/07 03:08:39;;;;;;;1.80;1.02;;;8.30;99.90;;;;;;6211587;23;20031;-66
2024/02/07 03:11:25;;;;;;;0.57;0.57;;;8.30;99.90;;;;;;6210071;23;20012;-65
2024/02/07 03:14:11;;;;;;;1.13;0.63;;;8.30;99.90;;;;;;6211623;23;20008;-66
2024/02/07 03:16:57;;;;;;;1.08;0.60;;;8.20;99.90;;;;;;6213991;23;20040;-66
2024/02/07 03:19:43;;;;;;;2.85;0.73;;;8.20;99.90;;;;;;6210824;23;20057;-66
2024/02/07 03:22:29;;;;;;;0.50;0.43;;;8.10;99.90;;;;;;6213969;23;20009;-66
2024/02/07 03:25:18;;;;;;;1.85;0.73;;;8.10;99.90;;;;;;6213486;23;20004;-66
2024/02/07 03:28:10;;;;;;;1.45;0.82;;;8.10;99.90;;;;;;6212948;23;20083;-67
2024/02/07 03:30:56;;;;;;;1.77;0.60;;;8.10;99.90;;;;;;6210357;23;20032;-66
2024/02/07 03:33:43;;;;;;;2.13;0.75;;;8.00;99.90;;;;;;6210932;23;20083;-66
2024/02/07 03:36:29;;;;;;;1.33;0.70;;;8.00;99.90;;;;;;6209930;23;20016;-66
2024/02/07 03:39:15;;;;;;;3.97;1.10;;;8.00;99.90;;;;;;6213517;23;20004;-66
2024/02/07 03:42:01;;;;;;;1.88;0.98;;;8.00;99.90;;;;;;6212961;23;20632;-67
2024/02/07 03:44:56;;;;;;;1.83;0.80;;;8.10;99.90;;;;;;6213330;23;20005;-67
2024/02/07 03:47:43;;;;;;;3.90;0.90;;;8.00;99.90;;;;;;6211726;23;20330;-67
2024/02/07 03:50:31;;;;;;;1.98;0.63;;;7.90;99.90;;;;;;6211830;23;20055;-67
2024/02/07 03:53:19;;;;;;;1.73;0.82;;;7.80;99.90;;;;;;6210523;23;20018;-67
2024/02/07 03:56:05;;;;;;;1.80;0.93;;;7.70;99.90;;;;;;6209908;23;20090;-67
2024/02/07 03:58:51;;;;;;;2.47;0.98;;;7.70;99.90;;;;;;6210939;23;20341;-67
2024/02/07 04:01:37;;;;;;;1.95;0.70;;;7.70;99.90;;;;;;6213388;23;20109;-67
2024/02/07 04:04:24;;;;;;;1.85;0.90;;;7.60;99.90;;;;;;6213238;23;20021;-67
2024/02/07 04:07:10;;;;;;;1.65;1.05;;;7.60;99.90;;;;;;6210159;23;20032;-67
2024/02/07 04:09:57;;;;;;;1.08;0.70;;;7.60;99.90;;;;;;6210641;23;20028;-67
2024/02/07 05:16:58;;;;;;;3.60;1.13;;;6.90;99.90;;;;;;6179075;23;20017;-68
2024/02/07 05:19:45;;;;;;;2.08;0.98;;;7.00;99.90;;;;;;6181796;23;20037;-68
2024/02/07 05:22:30;;;;;;;3.45;1.50;;;7.00;99.90;;;;;;6181722;23;20013;-67
2024/02/07 05:25:17;;;;;;;3.90;1.35;;;7.00;99.90;;;;;;6179386;23;20461;-69
2024/02/07 05:28:05;;;;;;;5.10;1.30;;;7.00;99.90;;;;;;6182334;23;20063;-68
2024/02/07 05:30:51;;;;;;;1.92;1.10;;;7.00;99.90;;;;;;6182589;23;19997;-68
2024/02/07 05:33:39;;;;;;;2.35;1.45;;;6.90;99.90;;;;;;6181185;23;20514;-68
2024/02/07 05:36:25;;;;;;;4.45;1.30;;;7.00;99.90;;;;;;6182551;23;20013;-68
2024/02/07 05:39:11;;;;;;;1.15;1.00;;;6.90;99.90;;;;;;6179753;23;20008;-68
2024/02/07 05:41:58;;;;;;;2.88;1.77;;;7.00;99.90;;;;;;6181800;23;20020;-68
2024/02/07 05:44:46;;;;;;;2.15;1.05;;;6.90;99.90;;;;;;6182495;23;20430;-67
2024/02/07 05:47:32;;;;;;;0.70;0.70;;;7.00;99.90;;;;;;6181020;23;20061;-68
2024/02/07 05:50:18;;;;;;;4.68;1.60;;;7.00;99.90;;;;;;6180780;23;20043;-67
2024/02/07 05:53:04;;;;;;;1.83;0.98;;;7.00;99.90;;;;;;6180872;23;20335;-68
2024/02/07 05:55:50;;;;;;;2.10;1.00;;;7.00;99.90;;;;;;6182445;23;20024;-67
2024/02/07 05:58:39;;;;;;;4.25;1.15;;;7.00;99.90;;;;;;6178966;23;20009;-67
2024/02/07 06:01:26;;;;;;;3.22;1.30;;;6.90;99.90;;;;;;6181878;23;20005;-66
2024/02/07 06:04:12;;;;;;;1.13;0.82;;;7.00;99.90;;;;;;6182649;23;20447;-66
2024/02/07 06:06:58;;;;;;;3.75;1.15;;;6.90;99.90;;;;;;6160713;23;20039;-66
2024/02/07 06:09:47;;;;;;;3.88;1.48;;;7.00;99.90;;;;;;6181936;23;19997;-67
2024/02/07 06:12:33;;;;;;;3.05;1.70;;;6.90;99.90;;;;;;6181606;23;20044;-66
2024/02/07 06:15:19;;;;;;;2.28;1.30;;;6.90;99.90;;;;;;6181364;23;20452;-66
2024/02/07 06:18:06;;;;;;;3.08;1.77;;;7.00;99.90;;;;;;6182517;23;20015;-64
2024/02/07 06:20:51;;;;;;;3.78;1.40;;;7.00;99.90;;;;;;6180329;23;20005;-63
2024/02/07 06:23:37;;;;;;;5.53;2.15;;;7.00;99.90;;;;;;6159073;23;20387;-64
2024/02/07 06:26:24;;;;;;;1.92;1.08;;;7.00;99.90;;;;;;6181821;23;20323;-64
2024/02/07 06:29:09;;;;;;;3.92;1.50;;;7.00;99.90;;;;;;6183013;23;20335;-63
2024/02/07 06:31:55;;;;;;;3.67;1.13;;;7.00;99.90;;;;;;6183614;23;20008;-63
2024/02/07 06:34:41;;;;;;;3.20;1.55;;;7.00;99.90;;;;;;6183874;23;20434;-63
2024/02/07 06:37:28;;;;;;;6.90;1.70;;;7.00;99.90;;;;;;6183188;23;20013;-63
2024/02/07 06:40:14;;;;;;;1.52;1.30;;;7.00;99.90;;;;;;6163574;23;20039;-63
2024/02/07 06:43:00;;;;;;;4.45;1.60;;;7.00;99.90;;;;;;6184512;23;20381;-63
2024/02/07 06:45:46;;;;;;;5.28;1.83;;;7.00;99.90;;;;;;6184790;23;20062;-62
2024/02/07 06:48:32;;;;;;;4.65;1.42;;;7.00;99.90;;;;;;6183771;23;20055;-63
2024/02/07 06:51:18;;;;;;;4.00;1.33;;;7.00;99.90;;;;;;6182494;23;20005;-62
2024/02/07 06:54:04;;;;;;;5.20;1.80;;;7.00;99.90;;;;;;6184285;23;20005;-62
2024/02/07 06:56:50;;;;;;;6.63;2.10;;;7.10;99.90;;;;;;6184722;23;20017;-63
2024/02/07 06:59:36;;;;;;;6.10;1.80;;;7.10;99.90;;;;;;6183938;23;20067;-62
2024/02/07 07:02:22;;;;;;;5.57;1.90;;;7.10;99.90;;;;;;6191308;23;20017;-64
2024/02/07 07:05:08;;;;;;;6.80;2.13;;;7.10;99.90;;;;;;6211092;23;20008;-63
2024/02/07 07:07:54;;;;;;;3.85;1.50;;;7.10;99.90;;;;;;6212425;23;20059;-63
2024/02/07 07:10:42;;;;;;;7.50;2.13;;;7.10;99.90;;;;;;6214032;23;20059;-63
2024/02/07 07:13:27;;;;;;;4.90;2.30;;;7.10;99.90;;;;;;6209733;23;20005;-63
2024/02/07 07:16:13;;;;;;;7.35;2.13;;;7.20;99.90;;;;;;6211876;23;20016;-64
2024/02/07 07:19:00;;;;;;;4.50;1.70;;;7.20;99.90;;;;;;6214544;23;20005;-64
2024/02/07 07:21:46;;;;;;;8.40;2.15;;;7.10;99.90;;;;;;6210947;23;20036;-64
2024/02/07 07:24:32;;;;;;;6.53;1.55;;;7.20;99.90;;;;;;6213388;23;20012;-64
2024/02/07 07:27:18;;;;;;;5.22;1.50;;;7.10;99.90;;;;;;6212843;23;20441;-64
2024/02/07 07:30:06;;;;;;;7.40;2.17;;;7.10;99.90;;;;;;6189747;23;20043;-64
2024/02/07 07:32:51;;;;;;;4.70;1.60;;;7.10;99.90;;;;;;6211757;23;20005;-63
2024/02/07 07:35:37;;;;;;;3.83;1.65;;;7.20;99.90;;;;;;6213364;23;20433;-63
2024/02/07 07:38:23;;;;;;;4.78;1.73;;;7.20;99.90;;;;;;6213497;23;20470;-64
2024/02/07 07:41:09;;;;;;;8.18;2.17;;;7.20;99.90;;;;;;6213793;23;20004;-63
2024/02/07 07:43:57;;;;;;;5.78;2.17;;;7.20;99.90;;;;;;6213679;23;20012;-63
2024/02/07 07:46:43;;;;;;;4.05;2.13;;;7.20;99.90;;;;;;6210204;23;20015;-63
2024/02/07 07:49:29;;;;;;;6.63;2.33;;;7.20;99.90;;;;;;6211567;23;20004;-63
2024/02/07 07:52:15;;;;;;;7.55;2.30;;;7.20;99.90;;;;;;6213501;23;20412;-62
2024/02/07 07:55:01;;;;;;;8.90;2.17;;;7.20;99.90;;;;;;6211673;23;20377;-65
2024/02/07 07:57:47;;;;;;;5.07;1.98;;;7.20;99.90;;;;;;6213376;23;20027;-66
2024/02/07 08:00:35;;;;;;;6.18;2.08;;;7.20;99.90;;;;;;6211895;23;20088;-65
2024/02/07 08:03:21;;;;;;;4.28;1.77;;;7.30;99.90;;;;;;6209861;23;20024;-65
2024/02/07 08:06:11;;;;;;;6.22;2.80;;;7.30;99.90;;;;;;6188646;23;20043;-66
2024/02/07 08:08:57;;;;;;;6.93;2.35;;;7.30;99.90;;;;;;6210172;23;20004;-66
2024/02/07 08:11:43;;;;;;;6.85;2.67;;;7.30;99.90;;;;;;6212964;23;20016;-66
2024/02/07 08:14:29;;;;;;;7.05;2.35;;;7.30;99.90;;;;;;6213400;23;20005;-66
2024/02/07 08:17:18;;;;;;;5.97;1.95;;;7.40;99.90;;;;;;6189462;23;20009;-65
2024/02/07 08:20:04;;;;;;;4.40;2.25;;;7.40;99.90;;;;;;6210145;23;20015;-68
2024/02/07 08:22:50;;;;;;;8.85;3.10;;;7.40;99.90;;;;;;6211366;23;20473;-66
2024/02/07 08:25:36;;;;;;;4.63;2.10;;;7.50;99.90;;;;;;6212379;23;20020;-66
2024/02/07 08:28:22;;;;;;;8.68;2.90;;;7.50;99.90;;;;;;6213341;23;20086;-65
2024/02/07 08:31:11;;;;;;;5.07;1.80;;;7.50;99.90;;;;;;6211624;23;20008;-67
2024/02/07 08:33:57;;;;;;;7.85;2.30;;;7.50;99.90;;;;;;6210323;23;20505;-66
2024/02/07 08:36:43;;;;;;;8.05;2.80;;;7.50;99.90;;;;;;6209604;23;20013;-65
2024/02/07 08:39:29;;;;;;;6.57;2.80;;;7.60;99.90;;;;;;6211374;23;20004;-65
2024/02/07 08:42:15;;;;;;;7.32;2.28;;;7.60;99.90;;;;;;6211900;23;20063;-65
2024/02/07 08:45:02;;;;;;;8.27;2.47;;;7.60;99.90;;;;;;6212747;23;20004;-67
2024/02/07 08:47:48;;;;;;;5.07;1.83;;;7.60;99.90;;;;;;6213318;23;20019;-65
2024/02/07 08:50:34;;;;;;;10.88;3.08;;;7.60;99.90;;;;;;6211896;23;20341;-66
2024/02/07 08:53:21;;;;;;;3.45;2.28;;;7.60;99.90;;;;;;6210795;23;20016;-66
2024/02/07 08:56:08;;;;;;;7.90;2.38;;;7.60;99.90;;;;;;6192084;23;20039;-65
2024/02/07 08:58:54;;;;;;;7.53;2.00;;;7.70;99.90;;;;;;6211244;23;20092;-66
2024/02/07 09:01:40;;;;;;;9.77;3.10;;;7.80;99.90;;;;;;6212839;23;20051;-65
2024/02/07 09:04:26;;;;;;;5.85;2.70;;;7.80;99.90;;;;;;6211675;23;20022;-66
2024/02/07 09:07:12;;;;;;;7.43;2.28;;;7.80;99.90;;;;;;6212950;23;20012;-66
2024/02/07 09:09:59;;;;;;;6.00;2.40;;;7.90;99.90;;;;;;6213122;23;20437;-65
2024/02/07 09:12:44;;;;;;;9.73;2.55;;;7.90;99.90;;;;;;6210670;23;20095;-66
2024/02/07 09:15:30;;;;;;;6.75;2.75;;;7.90;99.90;;;;;;6211720;23;20059;-67
2024/02/07 09:18:16;;;;;;;6.32;2.75;;;7.90;99.90;;;;;;6212748;23;20012;-65
2024/02/07 09:21:02;;;;;;;5.78;2.63;;;7.90;99.90;;;;;;6210232;23;20138;-65
2024/02/07 09:23:48;;;;;;;7.60;2.45;;;7.90;99.90;;;;;;6212537;23;20012;-66
2024/02/07 09:26:34;;;;;;;7.75;2.40;;;7.90;99.90;;;;;;6210653;23;20456;-65
2024/02/07 09:29:22;;;;;;;8.57;3.08;;;7.90;99.90;;;;;;6210627;23;20438;-65
2024/02/07 09:32:08;;;;;;;9.02;3.45;;;8.00;99.90;;;;;;6210219;23;20353;-65
2024/02/07 09:34:54;;;;;;;7.10;2.30;;;8.00;99.90;;;;;;6210537;23;20004;-65
2024/02/07 09:37:41;;;;;;;10.25;2.83;;;8.00;99.90;;;;;;6210877;23;20059;-62
2024/02/07 09:40:27;;;;;;;10.15;2.33;;;8.00;99.90;;;;;;6209742;23;20488;-62
2024/02/07 09:43:13;;;;;;;4.72;1.90;;;8.10;99.90;;;;;;6211687;23;20496;-62
2024/02/07 09:46:00;;;;;;;6.90;2.30;;;8.00;99.90;;;;;;6210149;23;20456;-62
2024/02/07 09:48:46;;;;;;;8.50;2.60;;;8.10;99.90;;;;;;6209537;23;20032;-63
2024/02/07 09:51:33;;;;;;;8.60;2.30;;;8.00;99.90;;;;;;6212993;23;20008;-62
2024/02/07 09:54:19;;;;;;;7.60;2.55;;;8.00;99.90;;;;;;6210553;23;20008;-62
2024/02/07 09:57:05;;;;;;;4.50;1.92;;;8.10;99.90;;;;;;6212201;23;20470;-63
2024/02/07 09:59:52;;;;;;;6.78;2.22;;;8.10;99.90;;;;;;6209611;23;20001;-63
2024/02/07 10:02:45;;;;;;;6.43;2.15;;;8.10;99.90;;;;;;6209417;23;20021;-63
2024/02/07 10:05:33;;;;;;;8.75;2.88;;;8.10;99.90;;;;;;6211444;23;20001;-63
2024/02/07 10:08:19;;;;;;;6.97;2.55;;;8.10;99.90;;;;;;6208908;23;20087;-62
2024/02/07 10:11:07;;;;;;;8.75;2.97;;;8.10;99.90;;;;;;6209802;23;20063;-63
2024/02/07 10:13:53;;;;;;;7.70;2.83;;;8.20;99.90;;;;;;6209123;23;20091;-62
2024/02/07 10:16:39;;;;;;;3.88;2.20;;;8.10;99.90;;;;;;6212456;23;20028;-62
2024/02/07 10:19:25;;;;;;;11.55;2.65;;;8.10;99.90;;;;;;6211309;23;20013;-63
2024/02/07 10:22:20;;;;;;;6.95;2.60;;;8.10;99.90;;;;;;6189099;23;20004;-62
2024/02/07 10:25:13;;;;;;;8.18;2.78;;;8.00;99.90;;;;;;6210933;23;20008;-63
2024/02/07 10:28:04;;;;;;;11.55;2.83;;;8.00;99.90;;;;;;6210958;23;20001;-63
2024/02/07 10:31:00;;;;;;;10.73;2.47;;;8.00;99.90;;;;;;6207977;23;20008;-63
2024/02/07 10:33:47;;;;;;;6.63;2.63;;;8.10;99.90;;;;;;6189351;23;20389;-63
2024/02/07 10:36:34;;;;;;;10.73;3.72;;;8.10;99.90;;;;;;6208554;23;20043;-63
2024/02/07 10:39:20;;;;;;;6.30;2.40;;;8.10;99.90;;;;;;6209144;23;20009;-63
2024/02/07 10:42:09;;;;;;;6.20;2.53;;;8.20;99.90;;;;;;6210825;23;20012;-63
2024/02/07 10:45:06;;;;;;;11.07;3.83;;;8.20;99.90;;;;;;6209045;23;20005;-63
2024/02/07 10:47:52;;;;;;;19.33;10.57;;;8.20;99.90;;;;;;6209952;23;20005;-63
2024/02/07 10:50:38;;;;;;;12.05;5.30;;;8.30;99.80;;;;;;6211517;23;20067;-62
2024/02/07 10:53:28;;;;;;;11.32;4.45;;;8.30;99.60;;;;;;6211388;23;20393;-62
2024/02/07 10:56:18;;;;;;;7.45;3.13;;;8.30;99.10;;;;;;6210153;23;20102;-62
2024/02/07 10:59:04;;;;;;;7.68;3.05;;;8.30;99.30;;;;;;6210227;23;20070;-63
2024/02/07 17:42:45;;;;;;;6.68;2.88;;;7.10;89.40;;;;;;6239914;23;20471;-63
2024/02/07 17:45:31;;;;;;;11.50;3.33;;;7.20;89.60;;;;;;6238728;23;20095;-64
2024/02/07 17:48:18;;;;;;;6.75;3.22;;;7.20;89.80;;;;;;6238637;23;20036;-63
2024/02/07 17:51:04;;;;;;;6.53;3.15;;;7.20;89.80;;;;;;6221268;22;20341;-63
2024/02/07 17:53:50;;;;;;;8.73;3.17;;;7.20;90.00;;;;;;6242209;23;20440;-63
2024/02/07 17:56:36;;;;;;;8.23;2.70;;;7.20;90.00;;;;;;6240028;23;20412;-63
2024/02/07 17:59:22;;;;;;;5.75;3.17;;;7.10;90.00;;;;;;6239886;23;20069;-63
2024/02/07 18:02:09;;;;;;;9.00;2.78;;;7.20;90.10;;;;;;6239894;23;20365;-64
2024/02/07 18:04:55;;;;;;;9.13;3.35;;;7.10;90.10;;;;;;6240451;23;20222;-64
2024/02/07 18:07:41;;;;;;;7.05;2.70;;;7.10;90.20;;;;;;6240130;23;20471;-64
2024/02/07 18:10:31;;;;;;;8.02;2.70;;;7.20;90.20;;;;;;6220777;23;20011;-64
2024/02/07 18:13:17;;;;;;;11.05;3.10;;;7.20;90.30;;;;;;6221270;23;20016;-64
2024/02/07 18:16:03;;;;;;;6.70;2.80;;;7.20;90.30;;;;;;6241160;23;20020;-64
2024/02/07 18:18:50;;;;;;;8.27;2.80;;;7.10;90.30;;;;;;6240834;22;20008;-64
2024/02/07 18:21:36;;;;;;;10.60;3.10;;;7.10;90.40;;;;;;6241494;23;20425;-63
2024/02/07 18:24:22;;;;;;;7.28;3.50;;;7.00;90.40;;;;;;6241661;23;20353;-63
2024/02/07 18:27:08;;;;;;;8.50;2.58;;;7.10;90.50;;;;;;6243370;23;20020;-64
2024/02/07 18:29:53;;;;;;;9.63;2.85;;;7.10;90.60;;;;;;6241071;23;20008;-64
2024/02/07 18:32:41;;;;;;;8.60;3.15;;;7.00;90.60;;;;;;6243195;23;20008;-65
2024/02/07 18:35:27;;;;;;;8.10;2.75;;;7.10;90.60;;;;;;6244130;23;20357;-64
2024/02/07 18:38:13;;;;;;;9.85;2.83;;;7.10;90.70;;;;;;6242491;23;20019;-64
2024/02/07 18:40:58;;;;;;;7.75;3.05;;;7.10;90.80;;;;;;6241302;23;20009;-65
2024/02/07 18:43:44;;;;;;;6.50;3.03;;;7.10;90.80;;;;;;6244012;23;20031;-65
2024/02/07 18:46:30;;;;;;;8.23;3.33;;;7.10;90.80;;;;;;6243413;23;20039;-65
2024/02/07 18:49:16;;;;;;;7.68;2.78;;;7.10;90.80;;;;;;6243378;23;20015;-65
2024/02/07 18:52:02;;;;;;;8.77;3.05;;;7.10;90.80;;;;;;6242158;23;20008;-64
2024/02/07 18:54:49;;;;;;;6.25;2.70;;;7.10;90.90;;;;;;6244272;23;20333;-64
2024/02/07 18:57:37;;;;;;;10.52;4.22;;;7.10;90.90;;;;;;6243558;23;20026;-64
2024/02/07 19:00:23;;;;;;;8.85;2.47;;;7.10;91.00;;;;;;6242127;23;20083;-64
2024/02/07 19:03:10;;;;;;;6.63;3.13;;;7.10;91.00;;;;;;6218764;23;20082;-64
2024/02/07 19:05:56;;;;;;;7.10;2.65;;;7.10;91.10;;;;;;6242622;23;20016;-64
2024/02/07 19:08:45;;;;;;;8.15;2.95;;;7.10;91.10;;;;;;6242989;23;20087;-63
2024/02/07 19:11:31;;;;;;;8.45;2.75;;;7.10;91.00;;;;;;6242322;23;20415;-63
2024/02/07 19:14:17;;;;;;;7.72;2.83;;;7.10;91.00;;;;;;6241555;23;20342;-63
2024/02/07 19:17:03;;;;;;;7.38;2.63;;;7.10;91.00;;;;;;6242112;23;20106;-64
2024/02/07 19:19:49;;;;;;;8.00;3.08;;;7.10;91.10;;;;;;6241886;22;20099;-64
2024/02/07 19:22:35;;;;;;;7.32;2.95;;;7.00;91.00;;;;;;6241605;23;20015;-64
2024/02/07 19:25:21;;;;;;;7.57;2.95;;;7.00;91.00;;;;;;6242590;23;20012;-64
2024/02/07 19:28:07;;;;;;;6.28;2.90;;;6.90;91.00;;;;;;6242505;23;20039;-64
2024/02/07 19:30:53;;;;;;;12.32;2.80;;;6.90;91.10;;;;;;6241188;23;20008;-65
2024/02/07 19:33:39;;;;;;;7.47;3.08;;;6.90;91.10;;;;;;6239601;23;20011;-63
2024/02/07 19:36:25;;;;;;;9.07;3.05;;;6.80;91.00;;;;;;6219069;23;20019;-64
2024/02/07 19:39:11;;;;;;;7.43;2.67;;;6.80;91.10;;;;;;6241504;23;20449;-62
2024/02/07 19:41:57;;;;;;;10.75;2.85;;;6.90;91.10;;;;;;6241750;23;20272;-63
2024/02/07 19:44:43;;;;;;;5.32;2.78;;;6.90;91.00;;;;;;6241116;23;20011;-64
2024/02/07 19:47:29;;;;;;;11.50;2.85;;;6.90;91.00;;;;;;6220598;23;20456;-66
2024/02/07 19:50:15;;;;;;;6.50;2.72;;;6.90;91.00;;;;;;6241311;23;20397;-65
2024/02/07 19:53:01;;;;;;;8.25;3.28;;;6.80;91.00;;;;;;6242701;23;20019;-65
2024/02/07 19:55:47;;;;;;;6.35;2.80;;;6.70;91.00;;;;;;6239336;23;20022;-65
2024/02/07 19:58:33;;;;;;;5.43;3.20;;;6.80;91.30;;;;;;6242091;23;20015;-65
2024/02/07 20:01:19;;;;;;;5.75;3.00;;;6.80;91.10;;;;;;6239538;23;20342;-63
2024/02/07 20:04:05;;;;;;;7.43;2.38;;;6.80;91.10;;;;;;6241499;23;20004;-65
2024/02/07 20:06:53;;;;;;;8.23;2.80;;;6.80;91.10;;;;;;6241437;23;20095;-65
2024/02/07 20:09:39;;;;;;;9.90;3.65;;;6.80;91.10;;;;;;6242544;23;20032;-64
2024/02/07 20:12:25;;;;;;;4.93;2.53;;;6.70;91.20;;;;;;6240272;23;20020;-65
2024/02/07 20:15:11;;;;;;;6.55;2.97;;;6.70;91.20;;;;;;6240291;23;20008;-65
2024/02/07 20:18:01;;;;;;;5.45;2.70;;;6.80;91.20;;;;;;6241892;23;20018;-65
2024/02/07 20:20:47;;;;;;;5.80;2.97;;;6.80;91.20;;;;;;6241752;23;20019;-64
2024/02/07 20:23:33;;;;;;;7.30;2.65;;;6.80;91.10;;;;;;6242185;23;20410;-63
2024/02/07 20:26:19;;;;;;;12.82;4.55;;;6.80;91.10;;;;;;6242170;23;20425;-65
2024/02/07 20:29:05;;;;;;;7.97;2.97;;;6.70;91.00;;;;;;6240577;23;20011;-64
2024/02/07 20:31:52;;;;;;;6.07;2.88;;;6.70;91.10;;;;;;6237335;23;20090;-65
2024/02/07 20:34:38;;;;;;;7.93;2.67;;;6.70;91.10;;;;;;6243528;23;20036;-64
2024/02/07 20:37:24;;;;;;;8.32;3.05;;;6.60;91.10;;;;;;6241588;23;20475;-65
2024/02/07 20:40:11;;;;;;;7.60;3.03;;;6.70;91.20;;;;;;6241294;23;20012;-63
2024/02/07 20:42:57;;;;;;;6.15;2.83;;;6.70;91.10;;;;;;6241539;23;20077;-65
2024/02/07 20:45:43;;;;;;;8.77;3.85;;;6.70;91.10;;;;;;6241760;23;20035;-64
2024/02/07 20:48:29;;;;;;;10.02;3.25;;;6.70;91.10;;;;;;6238493;23;20016;-64
2024/02/07 20:51:14;;;;;;;7.75;3.03;;;6.70;91.10;;;;;;6240692;23;20400;-64
2024/02/07 20:54:01;;;;;;;10.90;3.40;;;6.70;91.20;;;;;;6242055;23;20391;-64
2024/02/07 20:56:47;;;;;;;10.52;3.22;;;6.70;91.20;;;;;;6241530;23;20051;-65
2024/02/07 20:59:33;;;;;;;5.78;3.35;;;6.80;91.20;;;;;;6242216;23;20015;-64
2024/02/07 21:02:19;;;;;;;10.25;3.35;;;6.70;91.20;;;;;;6239834;23;20018;-64
2024/02/07 21:05:06;;;;;;;10.23;4.22;;;6.80;91.20;;;;;;6238305;23;20453;-64
2024/02/07 21:07:52;;;;;;;6.63;3.05;;;6.80;91.20;;;;;;6240871;23;20496;-64
2024/02/07 21:10:38;;;;;;;6.25;3.30;;;6.80;91.20;;;;;;6240088;23;20016;-65
2024/02/07 21:13:23;;;;;;;9.15;3.50;;;6.80;91.10;;;;;;6241246;23;20008;-64
2024/02/07 21:16:09;;;;;;;9.65;3.40;;;6.80;91.10;;;;;;6241634;23;20027;-65
2024/02/07 21:18:55;;;;;;;8.02;3.22;;;6.80;91.10;;;;;;6242506;22;20007;-65
2024/02/07 21:21:41;;;;;;;5.30;2.78;;;6.80;91.10;;;;;;6241506;23;20019;-65
2024/02/07 21:24:27;;;;;;;8.27;3.45;;;6.80;91.10;;;;;;6240613;23;20464;-65
2024/02/07 21:27:13;;;;;;;8.10;3.53;;;6.80;91.10;;;;;;6241255;23;20463;-65
2024/02/07 21:29:59;;;;;;;16.00;4.78;;;6.70;91.20;;;;;;6240816;23;20035;-65
2024/02/07 21:32:45;;;;;;;7.85;3.67;;;6.70;91.30;;;;;;6219049;23;20004;-65
2024/02/07 21:35:31;;;;;;;12.23;3.35;;;6.70;91.40;;;;;;6239067;23;20074;-65
2024/02/07 21:38:17;;;;;;;7.07;3.25;;;6.70;91.50;;;;;;6241318;23;20012;-64
2024/02/07 21:41:04;;;;;;;9.13;3.67;;;6.70;91.50;;;;;;6240719;23;20014;-66
2024/02/07 21:43:50;;;;;;;8.80;4.60;;;6.70;91.60;;;;;;6241522;23;20519;-65
2024/02/07 21:46:36;;;;;;;7.28;3.65;;;6.70;91.70;;;;;;6241696;23;20024;-65
2024/02/07 21:49:22;;;;;;;16.15;4.22;;;6.60;91.70;;;;;;6241092;23;20012;-64
2024/02/07 21:52:08;;;;;;;11.63;5.00;;;6.60;91.80;;;;;;6240341;23;20016;-67
2024/02/07 21:54:54;;;;;;;8.57;4.07;;;6.60;91.90;;;;;;6239985;23;20341;-66
2024/02/07 21:57:40;;;;;;;10.75;5.10;;;6.50;91.90;;;;;;6240717;23;20020;-64
2024/02/07 22:00:26;;;;;;;10.82;4.90;;;6.50;92.00;;;;;;6240804;23;20012;-65
2024/02/07 22:03:11;;;;;;;9.88;5.28;;;6.50;92.10;;;;;;6239424;23;20042;-67
2024/02/07 22:06:03;;;;;;;13.70;4.95;;;6.50;92.20;;;;;;6241455;23;20012;-68
2024/02/07 22:08:48;;;;;;;7.93;4.47;;;6.40;92.30;;;;;;6241891;23;20455;-68
2024/02/07 22:11:34;;;;;;;12.73;5.00;;;6.40;92.30;;;;;;6242040;23;20019;-68
2024/02/07 22:14:20;;;;;;;14.63;5.00;;;6.40;92.40;;;;;;6242575;23;20437;-68
2024/02/07 22:17:06;;;;;;;9.63;5.25;;;6.40;92.50;;;;;;6241555;23;20016;-67
2024/02/07 22:19:55;;;;;;;12.75;6.18;;;6.30;92.60;;;;;;6240864;22;20008;-68
2024/02/07 22:22:42;;;;;;;10.00;5.35;;;6.30;92.60;;;;;;6240143;23;20012;-68
2024/02/07 22:25:28;;;;;;;10.48;5.60;;;6.30;92.70;;;;;;6239043;23;20012;-68